Time;durP1;ratioP1;P1;durP2;ratioP2;P2;SDS_P1;SDS_P2;PMS_P1;PMS_P2;Temp;Humidity;BMP_temperature;BMP_pressure;BME280_temperature;BME280_humidity;BME280_pressure;Samples;Min_cycle;Max_cycle;Signal;HPM_P1;HPM_P2
2023/08/06 00:02:20;;;;;;;2.97;2.65;;;16.00;99.90;;;;;;2585893;54;21647;31
2023/08/06 00:04:54;;;;;;;3.17;2.87;;;16.10;99.90;;;;;;2585906;54;20026;31
2023/08/06 00:07:29;;;;;;;8.25;3.15;;;16.00;99.90;;;;;;2586235;54;20052;31
2023/08/06 00:10:05;;;;;;;3.20;2.30;;;16.00;99.90;;;;;;2585624;54;20101;31
2023/08/06 00:12:38;;;;;;;3.47;3.17;;;16.10;99.90;;;;;;2597791;46;21134;31
2023/08/06 00:15:13;;;;;;;4.15;2.80;;;16.00;99.90;;;;;;2585652;54;20328;31
2023/08/06 00:17:47;;;;;;;3.75;3.42;;;16.00;99.90;;;;;;2591112;46;21693;31
2023/08/06 00:20:22;;;;;;;;;;;15.90;99.90;;;;;;2604591;46;20026;31
2023/08/06 00:22:58;;;;;;;2.90;2.57;;;15.90;99.90;;;;;;2585712;54;20701;31
2023/08/06 00:25:41;;;;;;;3.30;3.00;;;15.90;99.90;;;;;;2585880;54;20878;31
2023/08/06 00:28:15;;;;;;;2.70;2.50;;;15.90;99.90;;;;;;2586161;54;20033;31
2023/08/06 00:30:56;;;;;;;4.00;2.40;;;15.90;99.90;;;;;;2584961;54;20057;31
2023/08/06 00:33:29;;;;;;;2.97;2.45;;;15.90;99.90;;;;;;2683046;39;22579;31
2023/08/06 00:36:06;;;;;;;4.00;3.10;;;15.90;99.90;;;;;;2585733;54;20926;31
2023/08/06 00:38:39;;;;;;;3.33;2.95;;;15.90;99.90;;;;;;2585650;54;20881;31
2023/08/06 00:41:18;;;;;;;3.23;2.67;;;15.90;99.90;;;;;;2585806;54;20027;31
2023/08/06 00:44:01;;;;;;;4.20;2.83;;;15.80;99.90;;;;;;2683649;39;21413;31
2023/08/06 00:46:35;;;;;;;4.50;2.60;;;15.90;99.90;;;;;;2585299;54;20085;31
2023/08/06 00:49:08;;;;;;;4.10;2.70;;;15.90;99.90;;;;;;2585831;54;21050;31
2023/08/06 00:51:45;;;;;;;3.20;2.58;;;15.90;99.90;;;;;;2585612;54;20027;31
2023/08/06 00:54:17;;;;;;;3.67;2.30;;;15.90;99.90;;;;;;2585438;54;20089;31
2023/08/06 00:57:00;;;;;;;3.60;2.90;;;15.90;99.90;;;;;;2585579;54;20029;31
2023/08/06 00:59:37;;;;;;;6.60;2.40;;;15.90;99.90;;;;;;2604175;47;20026;31
2023/08/06 01:02:11;;;;;;;5.00;2.25;;;15.90;99.90;;;;;;2585637;54;20077;31
2023/08/06 01:04:49;;;;;;;3.60;2.00;;;15.80;99.90;;;;;;2585473;54;20074;31
2023/08/06 01:07:44;;;;;;;2.10;1.90;;;15.80;99.90;;;;;;2604105;47;21236;31
2023/08/06 01:10:26;;;;;;;2.85;1.85;;;15.80;99.90;;;;;;2585254;54;20128;31
2023/08/06 01:13:05;;;;;;;2.93;1.60;;;15.80;99.90;;;;;;2585445;54;20032;31
2023/08/06 01:15:42;;;;;;;2.20;1.40;;;15.80;99.90;;;;;;2585706;54;21468;31
2023/08/06 01:18:20;;;;;;;4.10;2.10;;;15.80;99.90;;;;;;2585471;54;20855;31
2023/08/06 01:21:00;;;;;;;1.90;1.67;;;15.80;99.90;;;;;;2585546;54;20192;31
2023/08/06 01:23:33;;;;;;;2.50;1.88;;;15.70;99.90;;;;;;2585620;54;20242;31
2023/08/06 01:26:10;;;;;;;2.78;1.83;;;15.80;99.90;;;;;;2585574;54;20022;31
2023/08/06 01:28:47;;;;;;;4.07;2.00;;;15.70;99.90;;;;;;2603788;47;20899;31
2023/08/06 01:31:24;;;;;;;2.20;1.50;;;15.70;99.90;;;;;;2585435;54;20855;31
2023/08/06 01:33:57;;;;;;;3.10;1.50;;;15.70;99.90;;;;;;2604191;47;21349;31
2023/08/06 01:36:36;;;;;;;2.38;1.80;;;15.70;99.90;;;;;;2585694;54;20847;31
2023/08/06 01:39:09;;;;;;;1.50;1.30;;;15.70;99.90;;;;;;2585520;54;20776;31
2023/08/06 01:41:51;;;;;;;1.67;1.42;;;15.80;99.90;;;;;;2585457;54;20898;31
2023/08/06 01:44:24;;;;;;;3.45;1.40;;;15.70;99.90;;;;;;2585755;54;20869;31
2023/08/06 01:47:01;;;;;;;1.95;1.40;;;15.70;99.90;;;;;;2584624;54;20778;31
2023/08/06 01:49:36;;;;;;;1.73;1.10;;;15.70;99.90;;;;;;2585590;54;20026;31
2023/08/06 01:52:14;;;;;;;3.10;1.40;;;15.80;99.90;;;;;;2586301;54;20262;31
2023/08/06 01:54:49;;;;;;;2.17;1.80;;;15.80;99.90;;;;;;2586401;54;20037;31
2023/08/06 01:57:23;;;;;;;1.95;1.70;;;15.80;99.90;;;;;;2586403;54;19996;31
2023/08/06 01:59:57;;;;;;;2.75;1.40;;;15.70;99.90;;;;;;2585983;54;20023;31
2023/08/06 02:02:30;;;;;;;2.50;1.42;;;15.70;99.90;;;;;;2586285;54;20068;31
2023/08/06 02:05:05;;;;;;;4.50;1.20;;;15.80;99.90;;;;;;2586235;54;20031;31
2023/08/06 02:07:42;;;;;;;3.50;1.88;;;15.80;99.90;;;;;;2586236;54;20050;31
2023/08/06 02:10:15;;;;;;;1.70;1.10;;;15.70;99.90;;;;;;2586303;54;20027;31
2023/08/06 02:12:48;;;;;;;2.67;1.10;;;15.70;99.90;;;;;;2585474;54;20030;31
2023/08/06 02:15:23;;;;;;;3.42;1.25;;;15.70;99.90;;;;;;2585430;54;20684;31
2023/08/06 02:18:03;;;;;;;2.73;1.40;;;15.70;99.90;;;;;;2604716;46;20941;31
2023/08/06 02:20:38;;;;;;;2.37;1.50;;;15.80;99.90;;;;;;2586243;54;20037;31
2023/08/06 02:23:14;;;;;;;2.30;1.35;;;15.80;99.90;;;;;;2585916;54;20034;31
2023/08/06 02:25:59;;;;;;;3.22;1.20;;;15.70;99.90;;;;;;2585389;54;22402;31
2023/08/06 02:28:42;;;;;;;2.95;1.30;;;15.60;99.90;;;;;;2586485;54;20849;31
2023/08/06 02:31:17;;;;;;;2.17;1.33;;;15.60;99.90;;;;;;2684186;39;22245;31
2023/08/06 02:33:49;;;;;;;3.70;1.10;;;15.50;99.90;;;;;;2586331;54;20029;31
2023/08/06 02:36:23;;;;;;;2.70;1.30;;;15.50;99.90;;;;;;2585972;54;20089;31
2023/08/06 02:38:55;;;;;;;1.65;0.95;;;15.50;99.90;;;;;;2586179;54;20345;31
2023/08/06 02:41:35;;;;;;;1.23;1.02;;;15.50;99.90;;;;;;2604287;46;20136;31
2023/08/06 02:44:09;;;;;;;3.33;1.00;;;15.50;99.90;;;;;;2586126;54;20870;31
2023/08/06 02:46:43;;;;;;;0.93;0.60;;;15.40;99.90;;;;;;2586362;54;20887;31
2023/08/06 02:49:21;;;;;;;1.27;0.70;;;15.40;99.90;;;;;;2604562;46;20893;31
2023/08/06 02:51:53;;;;;;;;;;;15.40;99.90;;;;;;2604678;46;20085;31
2023/08/06 02:54:28;;;;;;;1.02;0.60;;;15.40;99.90;;;;;;2604747;46;20770;31
2023/08/06 02:57:06;;;;;;;2.35;0.60;;;15.40;99.90;;;;;;2586012;54;20816;31
2023/08/06 02:59:44;;;;;;;1.50;0.60;;;15.30;99.90;;;;;;2586040;54;20785;31
2023/08/06 03:02:25;;;;;;;0.98;0.50;;;15.40;99.90;;;;;;2585591;54;20995;31
2023/08/06 03:05:09;;;;;;;1.00;0.60;;;15.40;99.90;;;;;;2586116;54;20081;31
2023/08/06 03:07:47;;;;;;;4.20;0.50;;;15.30;99.90;;;;;;2585967;54;20031;31
2023/08/06 03:10:29;;;;;;;0.68;0.40;;;15.30;99.90;;;;;;2604264;46;20480;31
2023/08/06 03:13:12;;;;;;;2.08;0.30;;;15.30;99.90;;;;;;2604357;46;20053;31
2023/08/06 03:15:58;;;;;;;2.20;0.40;;;15.30;99.90;;;;;;2586334;54;20030;31
2023/08/06 03:18:32;;;;;;;0.60;0.30;;;15.30;99.90;;;;;;2683825;39;21614;31
2023/08/06 03:21:11;;;;;;;1.85;0.50;;;15.30;99.90;;;;;;2586158;54;20049;31
2023/08/06 03:23:48;;;;;;;0.87;0.50;;;15.20;99.90;;;;;;2585976;54;20027;31
2023/08/06 03:26:25;;;;;;;0.80;0.30;;;15.20;99.90;;;;;;2586063;54;20023;31
2023/08/06 03:29:01;;;;;;;0.50;0.30;;;15.20;99.90;;;;;;2585756;54;20062;31
2023/08/06 03:31:42;;;;;;;0.20;0.20;;;15.20;99.90;;;;;;2585912;54;20909;31
2023/08/06 03:34:24;;;;;;;0.50;0.25;;;15.30;99.90;;;;;;2604196;46;20077;31
2023/08/06 03:36:59;;;;;;;1.73;0.68;;;15.30;99.90;;;;;;2604908;46;20852;31
2023/08/06 03:39:42;;;;;;;1.10;0.30;;;15.30;99.90;;;;;;2604140;46;20105;31
2023/08/06 03:42:16;;;;;;;0.97;0.27;;;15.20;99.90;;;;;;2683596;39;22550;31
2023/08/06 03:44:53;;;;;;;1.95;0.30;;;15.20;99.90;;;;;;2586099;54;20054;31
2023/08/06 03:47:28;;;;;;;1.83;0.40;;;15.20;99.90;;;;;;2604693;46;19942;31
2023/08/06 03:50:00;;;;;;;2.10;0.30;;;15.20;99.90;;;;;;2586060;54;20069;31
2023/08/06 03:52:36;;;;;;;1.05;0.20;;;15.10;99.90;;;;;;2586154;54;20022;31
2023/08/06 03:55:14;;;;;;;0.63;0.30;;;15.10;99.90;;;;;;2586020;54;20302;31
2023/08/06 03:57:49;;;;;;;1.30;0.40;;;15.10;99.90;;;;;;2586164;54;20992;31
2023/08/06 04:00:25;;;;;;;0.40;0.30;;;15.10;99.90;;;;;;2585121;54;20819;31
2023/08/06 04:03:01;;;;;;;1.65;0.30;;;15.10;99.90;;;;;;2585368;54;20026;31
2023/08/06 04:08:08;;;;;;;0.80;0.30;;;15.10;99.90;;;;;;2585799;54;20027;31
2023/08/06 04:10:43;;;;;;;1.85;0.30;;;15.10;99.90;;;;;;2585737;54;20907;31
2023/08/06 04:13:18;;;;;;;0.60;0.20;;;15.10;99.90;;;;;;2585664;54;20027;31
2023/08/06 04:15:55;;;;;;;1.02;0.30;;;15.10;99.90;;;;;;2754515;31;21566;31
2023/08/06 04:18:29;;;;;;;1.05;0.30;;;15.10;99.90;;;;;;2595605;46;20576;31
2023/08/06 04:21:04;;;;;;;2.70;0.30;;;15.10;99.90;;;;;;2683753;39;21083;31
2023/08/06 04:23:39;;;;;;;0.60;0.30;;;15.10;99.90;;;;;;2602023;46;20936;31
2023/08/06 04:26:17;;;;;;;0.73;0.30;;;15.10;99.90;;;;;;2603969;46;20678;31
2023/08/06 04:28:52;;;;;;;0.60;0.30;;;15.10;99.90;;;;;;2584978;54;20056;31
2023/08/06 04:31:33;;;;;;;1.05;0.20;;;15.10;99.90;;;;;;2585754;54;20022;31
2023/08/06 04:34:07;;;;;;;0.70;0.30;;;15.10;99.90;;;;;;2585831;54;20683;31
2023/08/06 04:36:44;;;;;;;1.88;0.50;;;15.10;99.90;;;;;;2586038;54;20889;31
2023/08/06 04:39:20;;;;;;;1.95;0.30;;;15.10;99.90;;;;;;2683538;39;21614;31
2023/08/06 04:41:53;;;;;;;;;;;15.10;99.90;;;;;;2702104;39;20444;31
2023/08/06 04:44:30;;;;;;;0.85;0.40;;;15.10;99.90;;;;;;2585334;54;19934;31
2023/08/06 04:47:12;;;;;;;1.23;0.37;;;15.00;99.90;;;;;;2585587;54;20038;31
2023/08/06 04:49:49;;;;;;;2.40;0.43;;;15.00;99.90;;;;;;2585564;54;20243;31
2023/08/06 04:52:28;;;;;;;1.10;0.50;;;15.00;99.90;;;;;;2603545;46;20644;31
2023/08/06 04:55:01;;;;;;;3.05;0.50;;;15.00;99.90;;;;;;2585938;54;20882;31
2023/08/06 04:57:35;;;;;;;1.55;0.60;;;14.90;99.90;;;;;;2585625;54;20817;31
2023/08/06 05:00:10;;;;;;;3.42;0.68;;;14.90;99.90;;;;;;2604594;47;20105;31
2023/08/06 05:02:46;;;;;;;2.35;0.50;;;14.90;99.90;;;;;;2585847;54;20026;31
2023/08/06 05:05:22;;;;;;;0.88;0.40;;;15.00;99.90;;;;;;2585738;54;20844;31
2023/08/06 05:07:56;;;;;;;0.50;0.30;;;14.90;99.90;;;;;;2683528;39;21532;31
2023/08/06 05:10:33;;;;;;;1.08;0.35;;;14.90;99.90;;;;;;2683612;39;21455;31
2023/08/06 05:13:06;;;;;;;0.82;0.40;;;14.90;99.90;;;;;;2586101;54;21523;31
2023/08/06 05:15:45;;;;;;;1.05;0.45;;;15.00;99.90;;;;;;2584804;54;20963;31
2023/08/06 05:18:23;;;;;;;2.47;0.50;;;14.90;99.90;;;;;;2586007;54;19960;31
2023/08/06 05:20:58;;;;;;;1.15;0.50;;;14.90;99.90;;;;;;2585772;54;20026;31
2023/08/06 05:23:32;;;;;;;1.10;0.30;;;14.90;99.90;;;;;;2585512;54;21058;31
2023/08/06 05:26:09;;;;;;;2.55;0.68;;;14.90;99.90;;;;;;2586795;54;20888;31
2023/08/06 05:28:45;;;;;;;0.50;0.30;;;14.90;99.90;;;;;;2586516;54;19934;31
2023/08/06 05:31:23;;;;;;;2.40;0.30;;;14.90;99.90;;;;;;2586304;54;20924;31
2023/08/06 05:34:02;;;;;;;0.55;0.30;;;14.90;99.90;;;;;;2586497;54;20030;31
2023/08/06 05:36:41;;;;;;;0.73;0.25;;;14.90;99.90;;;;;;2586442;54;20035;31
2023/08/06 05:39:14;;;;;;;1.55;0.30;;;14.90;99.90;;;;;;2586484;54;20664;31
2023/08/06 05:41:48;;;;;;;0.50;0.20;;;14.90;99.90;;;;;;2585929;54;20095;31
2023/08/06 05:44:24;;;;;;;0.45;0.25;;;14.90;99.90;;;;;;2684282;39;21493;31
2023/08/06 05:47:03;;;;;;;1.95;0.30;;;14.90;99.90;;;;;;2586084;54;20117;31
2023/08/06 05:49:39;;;;;;;1.10;0.23;;;14.90;99.90;;;;;;2586500;54;20142;31
2023/08/06 05:52:13;;;;;;;1.00;0.20;;;14.90;99.90;;;;;;2586408;54;21318;31
2023/08/06 05:54:51;;;;;;;2.20;0.40;;;14.90;99.90;;;;;;2586622;54;20029;31
2023/08/06 05:57:25;;;;;;;1.55;0.28;;;14.90;99.90;;;;;;2586263;54;20027;31
2023/08/06 06:00:00;;;;;;;0.50;0.10;;;14.90;99.90;;;;;;2684381;39;21456;31
2023/08/06 06:02:44;;;;;;;6.40;0.30;;;14.90;99.90;;;;;;2586510;54;20030;31
2023/08/06 06:05:20;;;;;;;1.80;0.30;;;14.90;99.90;;;;;;2586717;54;20888;31
2023/08/06 06:07:54;;;;;;;2.05;0.35;;;14.90;99.90;;;;;;2586369;54;20045;31
2023/08/06 06:10:31;;;;;;;1.30;0.10;;;14.90;99.90;;;;;;2604690;46;20033;31
2023/08/06 06:13:05;;;;;;;1.70;0.30;;;14.90;99.90;;;;;;2586418;54;20805;31
2023/08/06 06:15:43;;;;;;;2.05;0.32;;;14.90;99.90;;;;;;2586425;54;20030;31
2023/08/06 06:18:18;;;;;;;1.95;0.20;;;14.90;99.90;;;;;;2586211;54;19961;31
2023/08/06 06:20:55;;;;;;;0.70;0.20;;;14.90;99.90;;;;;;2586486;54;20030;31
2023/08/06 06:23:32;;;;;;;1.65;0.40;;;15.00;99.90;;;;;;2604058;46;20868;31
2023/08/06 06:26:06;;;;;;;1.55;0.30;;;14.90;99.90;;;;;;2586333;54;19957;31
2023/08/06 06:28:42;;;;;;;1.40;0.40;;;15.00;99.90;;;;;;2586515;54;21103;31
2023/08/06 06:31:17;;;;;;;0.70;0.20;;;15.00;99.90;;;;;;2604479;46;20899;31
2023/08/06 06:33:54;;;;;;;1.00;0.30;;;15.00;99.90;;;;;;2605037;46;20903;31
2023/08/06 06:36:36;;;;;;;0.57;0.20;;;15.00;99.90;;;;;;2604593;46;20928;31
2023/08/06 06:39:13;;;;;;;1.27;0.20;;;15.00;99.90;;;;;;2604535;46;20878;31
2023/08/06 06:41:52;;;;;;;1.23;0.40;;;15.00;99.90;;;;;;2604681;46;20899;31
2023/08/06 06:44:35;;;;;;;1.25;0.15;;;15.00;99.90;;;;;;2586168;54;20865;31
2023/08/06 06:47:08;;;;;;;0.80;0.10;;;15.00;99.90;;;;;;2586349;54;20912;31
2023/08/06 06:49:45;;;;;;;0.40;0.20;;;15.00;99.90;;;;;;2586080;54;20038;31
2023/08/06 06:52:23;;;;;;;0.98;0.30;;;15.00;99.90;;;;;;2586310;54;20934;31
2023/08/06 06:54:59;;;;;;;1.10;0.55;;;15.00;99.90;;;;;;2586235;54;20924;31
2023/08/06 06:57:32;;;;;;;2.87;0.37;;;15.00;99.90;;;;;;2604735;46;20917;31
2023/08/06 07:00:09;;;;;;;3.63;0.30;;;15.00;99.90;;;;;;2586058;54;20153;31
2023/08/06 07:02:46;;;;;;;2.65;0.20;;;15.00;99.90;;;;;;2585097;54;20773;31
2023/08/06 07:05:23;;;;;;;2.58;0.40;;;15.00;99.90;;;;;;2604381;46;20033;31
2023/08/06 07:08:05;;;;;;;0.30;0.15;;;15.00;99.90;;;;;;2586129;54;20049;31
2023/08/06 07:10:44;;;;;;;3.80;0.20;;;15.10;99.90;;;;;;2604612;46;20089;31
2023/08/06 07:13:22;;;;;;;0.50;0.20;;;15.10;99.90;;;;;;2586037;54;20165;31
2023/08/06 07:15:55;;;;;;;1.83;0.20;;;15.10;99.90;;;;;;2586343;54;20028;31
2023/08/06 07:18:29;;;;;;;1.60;0.32;;;15.10;99.90;;;;;;2585938;54;20811;31
2023/08/06 07:21:04;;;;;;;1.10;0.20;;;15.10;99.90;;;;;;2586181;54;20800;31
2023/08/06 07:23:44;;;;;;;0.50;0.30;;;15.10;99.90;;;;;;2586040;54;20031;31
2023/08/06 07:26:18;;;;;;;0.70;0.20;;;15.20;99.90;;;;;;2586001;54;20930;31
2023/08/06 07:28:52;;;;;;;0.88;0.30;;;15.10;99.90;;;;;;2586064;54;20032;31
2023/08/06 07:31:25;;;;;;;1.05;0.30;;;15.20;99.90;;;;;;2604412;46;20772;31
2023/08/06 07:33:58;;;;;;;0.60;0.30;;;15.10;99.90;;;;;;2586062;54;20031;31
2023/08/06 07:36:32;;;;;;;1.23;0.43;;;15.20;99.90;;;;;;2585999;54;20049;31
2023/08/06 07:39:09;;;;;;;1.05;0.32;;;15.20;99.90;;;;;;2585959;54;20905;31
2023/08/06 07:41:45;;;;;;;0.75;0.35;;;15.20;99.90;;;;;;2585861;54;20031;31
2023/08/06 07:44:23;;;;;;;2.15;0.40;;;15.20;99.90;;;;;;2585859;54;20049;31
2023/08/06 07:47:01;;;;;;;1.00;0.30;;;15.30;99.90;;;;;;2604283;46;20042;31
2023/08/06 07:49:38;;;;;;;2.75;0.40;;;15.30;99.90;;;;;;2586168;54;20827;31
2023/08/06 07:52:11;;;;;;;1.23;0.47;;;15.30;99.90;;;;;;2586166;54;20881;31
2023/08/06 07:54:47;;;;;;;1.52;0.65;;;15.30;99.90;;;;;;2585822;54;20026;31
2023/08/06 07:57:30;;;;;;;1.30;0.60;;;15.30;99.90;;;;;;2586052;54;20031;31
2023/08/06 08:00:10;;;;;;;1.10;0.70;;;15.30;99.90;;;;;;2604260;46;20329;31
2023/08/06 08:02:46;;;;;;;2.55;0.73;;;15.20;99.90;;;;;;2586181;54;20801;31
2023/08/06 08:05:22;;;;;;;1.50;0.80;;;15.30;99.90;;;;;;2585830;54;20955;31
2023/08/06 08:08:05;;;;;;;1.30;1.20;;;15.30;99.90;;;;;;2585902;54;20869;31
2023/08/06 08:13:15;;;;;;;1.60;1.25;;;15.30;99.90;;;;;;2585824;54;20080;31
2023/08/06 08:15:48;;;;;;;1.50;1.27;;;15.30;99.90;;;;;;2585879;54;20046;31
2023/08/06 08:18:26;;;;;;;1.40;1.30;;;15.30;99.90;;;;;;2585507;54;20909;31
2023/08/06 08:21:01;;;;;;;1.95;1.75;;;15.30;99.90;;;;;;2585843;54;20938;31
2023/08/06 08:23:35;;;;;;;3.85;1.90;;;15.40;99.90;;;;;;2586127;54;20840;31
2023/08/06 08:26:11;;;;;;;2.53;2.17;;;15.30;99.90;;;;;;2683803;39;22326;31
2023/08/06 08:28:51;;;;;;;3.45;2.05;;;15.30;99.90;;;;;;2585925;54;20052;31
2023/08/06 08:31:29;;;;;;;2.25;2.05;;;15.30;99.90;;;;;;2604526;46;20081;31
2023/08/06 08:34:09;;;;;;;2.70;2.50;;;15.40;99.90;;;;;;2592824;46;20930;31
2023/08/06 08:36:47;;;;;;;2.47;1.92;;;15.30;99.90;;;;;;2585073;54;20780;31
2023/08/06 08:39:22;;;;;;;3.15;1.92;;;15.30;99.90;;;;;;2585890;54;20026;31
2023/08/06 08:42:03;;;;;;;2.25;2.05;;;15.30;99.90;;;;;;2584907;54;20981;31
2023/08/06 08:44:46;;;;;;;1.70;1.60;;;15.30;99.90;;;;;;2585738;54;19935;31
2023/08/06 08:47:19;;;;;;;1.90;1.50;;;15.40;99.90;;;;;;2585703;54;20022;31
2023/08/06 08:49:55;;;;;;;2.22;2.03;;;15.40;99.90;;;;;;2604177;46;21220;31
2023/08/06 08:55:55;;;;;;;1.45;1.35;;;15.40;99.90;;;;;;2585311;54;20361;31
2023/08/06 08:58:35;;;;;;;1.10;1.00;;;15.40;99.90;;;;;;2585912;54;20879;31
2023/08/06 09:01:14;;;;;;;1.00;0.90;;;15.40;99.90;;;;;;2586549;54;20696;31
2023/08/06 09:03:50;;;;;;;1.95;0.90;;;15.40;99.90;;;;;;2586358;54;20128;31
2023/08/06 09:06:25;;;;;;;1.53;0.80;;;15.40;99.90;;;;;;2604865;46;20881;31
2023/08/06 09:09:05;;;;;;;2.75;0.80;;;15.40;99.90;;;;;;2586565;54;20085;31
2023/08/06 09:11:48;;;;;;;2.40;0.80;;;15.40;99.90;;;;;;2586526;54;20086;31
2023/08/06 09:14:22;;;;;;;0.63;0.60;;;15.50;99.90;;;;;;2586491;54;20039;31
2023/08/06 09:17:01;;;;;;;0.93;0.40;;;15.50;99.90;;;;;;2604646;46;20070;31
2023/08/06 09:19:36;;;;;;;0.40;0.30;;;15.50;99.90;;;;;;2586368;54;21541;31
2023/08/06 09:22:14;;;;;;;1.10;0.60;;;15.50;99.90;;;;;;2586324;54;20001;31
2023/08/06 09:24:50;;;;;;;2.40;0.50;;;15.50;99.90;;;;;;2588878;46;20045;31
2023/08/06 09:27:25;;;;;;;0.93;0.50;;;15.50;99.90;;;;;;2684442;39;22287;31
2023/08/06 09:30:03;;;;;;;0.53;0.30;;;15.50;99.90;;;;;;2586097;54;21262;31
2023/08/06 09:32:57;;;;;;;1.58;0.47;;;15.50;99.90;;;;;;2585413;54;20088;31
2023/08/06 09:35:33;;;;;;;0.60;0.30;;;15.60;99.90;;;;;;2604545;46;20023;31
2023/08/06 09:38:11;;;;;;;0.63;0.30;;;15.60;99.90;;;;;;2586747;54;20054;31
2023/08/06 09:40:47;;;;;;;0.75;0.30;;;15.60;99.90;;;;;;2586592;54;20846;31
2023/08/06 09:43:24;;;;;;;2.10;0.40;;;15.50;99.90;;;;;;2702577;39;20420;31
2023/08/06 09:46:00;;;;;;;1.02;0.40;;;15.50;99.90;;;;;;2586407;54;20906;31
2023/08/06 09:48:44;;;;;;;1.20;0.45;;;15.50;99.90;;;;;;2604427;46;21386;31
2023/08/06 09:51:19;;;;;;;2.08;0.90;;;15.50;99.90;;;;;;2586021;54;20558;31
2023/08/06 09:53:54;;;;;;;1.55;0.60;;;15.50;99.90;;;;;;2585958;54;20576;31
2023/08/06 09:56:37;;;;;;;8.30;3.30;;;15.50;99.90;;;;;;2586192;54;21613;31
2023/08/06 09:59:15;;;;;;;1.13;0.50;;;15.60;99.90;;;;;;2586143;54;20032;31
2023/08/06 10:01:51;;;;;;;0.80;0.50;;;15.60;99.90;;;;;;2585992;54;20260;31
2023/08/06 10:04:32;;;;;;;5.60;0.80;;;15.60;99.90;;;;;;2586761;54;20034;31
2023/08/06 10:07:22;;;;;;;1.58;0.80;;;15.60;99.90;;;;;;2684141;39;22248;31
2023/08/06 10:10:05;;;;;;;3.15;0.50;;;15.60;99.90;;;;;;2586059;54;20157;31
2023/08/06 10:12:46;;;;;;;1.20;0.60;;;15.60;99.90;;;;;;2683800;39;21493;31
2023/08/06 10:15:24;;;;;;;1.40;0.70;;;15.60;99.90;;;;;;2586072;54;20882;31
2023/08/06 10:18:00;;;;;;;1.95;0.50;;;15.50;99.90;;;;;;2586351;54;20242;31
2023/08/06 10:20:43;;;;;;;1.48;0.70;;;15.50;99.90;;;;;;2754768;31;21262;31
2023/08/06 10:23:20;;;;;;;0.80;0.65;;;15.50;99.90;;;;;;2586199;54;20033;31
2023/08/06 10:25:59;;;;;;;2.58;2.10;;;15.50;99.90;;;;;;2604430;46;20030;31
2023/08/06 10:28:48;;;;;;;5.50;3.00;;;15.50;99.90;;;;;;2585997;54;20493;31
2023/08/06 10:31:41;;;;;;;2.17;1.50;;;15.50;99.90;;;;;;2586390;54;20026;31
2023/08/06 10:34:18;;;;;;;3.45;1.50;;;15.50;99.90;;;;;;2586153;54;20519;31
2023/08/06 10:37:03;;;;;;;1.50;1.05;;;15.50;99.90;;;;;;2585725;54;20030;31
2023/08/06 10:39:39;;;;;;;1.00;0.80;;;15.50;99.90;;;;;;2586035;54;20049;31
2023/08/06 10:42:26;;;;;;;1.50;0.70;;;15.50;99.90;;;;;;2683274;39;20416;31
2023/08/06 10:45:17;;;;;;;1.67;0.90;;;15.50;99.90;;;;;;2604475;46;20929;31
2023/08/06 10:47:53;;;;;;;1.00;0.80;;;15.50;99.90;;;;;;2702660;39;21702;31
2023/08/06 10:50:27;;;;;;;1.48;1.00;;;15.50;99.90;;;;;;2605069;46;20026;31
2023/08/06 10:53:09;;;;;;;1.20;0.60;;;15.60;99.90;;;;;;2598804;46;20038;31
2023/08/06 10:55:43;;;;;;;1.10;0.80;;;15.60;99.90;;;;;;2586180;54;21060;31
2023/08/06 10:58:19;;;;;;;2.13;0.93;;;15.60;99.90;;;;;;2599107;46;20030;31
2023/08/06 11:00:56;;;;;;;1.13;0.60;;;15.70;99.90;;;;;;2585925;54;20026;31
2023/08/06 11:03:37;;;;;;;4.22;0.75;;;15.70;99.90;;;;;;2588823;46;21015;31
2023/08/06 11:06:22;;;;;;;1.63;0.80;;;15.70;99.90;;;;;;2698251;39;21625;31
2023/08/06 11:09:01;;;;;;;3.40;0.80;;;15.70;99.90;;;;;;2585782;54;20870;31
2023/08/06 11:11:36;;;;;;;1.30;0.60;;;15.80;99.90;;;;;;2586022;54;20775;31
2023/08/06 11:14:08;;;;;;;3.30;0.70;;;15.80;99.90;;;;;;2586229;54;20297;31
2023/08/06 11:16:50;;;;;;;2.60;0.70;;;15.80;99.90;;;;;;2586126;54;20889;31
2023/08/06 11:19:26;;;;;;;1.13;0.50;;;15.90;99.90;;;;;;2585670;54;20310;31
2023/08/06 11:22:01;;;;;;;0.70;0.50;;;15.90;99.90;;;;;;2585665;54;20860;31
2023/08/06 11:24:37;;;;;;;1.03;0.80;;;15.90;99.90;;;;;;2585621;54;20917;31
2023/08/06 11:27:16;;;;;;;1.13;0.70;;;15.90;99.90;;;;;;2585018;54;20173;31
2023/08/06 11:29:49;;;;;;;1.38;0.60;;;15.90;99.90;;;;;;2684073;39;21445;31
2023/08/06 11:32:24;;;;;;;0.80;0.52;;;15.90;99.90;;;;;;2604048;46;19935;31
2023/08/06 11:35:01;;;;;;;1.10;0.67;;;15.90;99.90;;;;;;2586207;54;20921;31
2023/08/06 11:37:35;;;;;;;1.00;0.55;;;15.90;99.90;;;;;;2586086;54;20374;31
2023/08/06 11:40:14;;;;;;;1.08;0.50;;;15.90;99.90;;;;;;2586117;54;20132;31
2023/08/06 11:42:47;;;;;;;1.15;0.52;;;15.90;99.90;;;;;;2586268;54;20863;31
2023/08/06 11:45:28;;;;;;;0.60;0.43;;;16.00;99.90;;;;;;2586212;54;20933;31
2023/08/06 11:48:03;;;;;;;1.70;0.40;;;15.90;99.90;;;;;;2585817;54;20026;31
2023/08/06 11:50:41;;;;;;;0.50;0.43;;;15.90;99.90;;;;;;2586083;54;20960;31
2023/08/06 11:53:18;;;;;;;0.97;0.40;;;16.00;99.90;;;;;;2586236;54;20029;31
2023/08/06 11:55:56;;;;;;;1.00;0.60;;;16.00;99.90;;;;;;2604800;46;20956;31
2023/08/06 11:58:34;;;;;;;0.80;0.50;;;16.00;99.90;;;;;;2584979;54;20031;31
2023/08/06 12:01:07;;;;;;;1.10;0.60;;;16.00;99.90;;;;;;2586261;54;20766;31
2023/08/06 12:03:42;;;;;;;0.73;0.40;;;15.90;99.90;;;;;;2585291;54;20034;31
2023/08/06 12:06:21;;;;;;;1.10;0.40;;;16.00;99.90;;;;;;2585957;54;20030;31
2023/08/06 12:08:59;;;;;;;0.60;0.50;;;16.00;99.90;;;;;;2585765;54;20104;31
2023/08/06 12:11:39;;;;;;;0.68;0.30;;;16.00;99.90;;;;;;2586094;54;20026;31
2023/08/06 12:14:12;;;;;;;1.15;0.45;;;16.00;99.90;;;;;;2586204;54;20033;31
2023/08/06 12:16:47;;;;;;;1.10;0.60;;;15.90;99.90;;;;;;2604263;46;20838;31
2023/08/06 12:19:20;;;;;;;1.10;0.50;;;15.90;99.90;;;;;;2586057;54;21059;31
2023/08/06 12:21:57;;;;;;;0.88;0.50;;;15.90;99.90;;;;;;2585075;54;20837;31
2023/08/06 12:24:31;;;;;;;1.17;0.60;;;15.90;99.90;;;;;;2585918;54;20029;31
2023/08/06 12:27:13;;;;;;;1.00;0.60;;;15.90;99.90;;;;;;2604243;46;20926;31
2023/08/06 12:29:46;;;;;;;1.38;0.40;;;15.90;99.90;;;;;;2585910;54;21251;31
2023/08/06 12:32:25;;;;;;;1.00;0.60;;;15.90;99.90;;;;;;2585992;54;20048;31
2023/08/06 12:35:03;;;;;;;1.70;1.00;;;15.90;99.90;;;;;;2585712;54;20026;31
2023/08/06 12:37:36;;;;;;;1.17;0.80;;;15.90;99.90;;;;;;2585957;54;19934;31
2023/08/06 12:40:11;;;;;;;0.95;0.73;;;15.90;99.90;;;;;;2604378;46;20247;31
2023/08/06 12:43:12;;;;;;;0.52;0.40;;;15.90;99.90;;;;;;2586068;54;20870;31
2023/08/06 12:45:46;;;;;;;2.80;0.90;;;15.90;99.90;;;;;;2585822;54;20853;31
2023/08/06 12:48:19;;;;;;;1.10;0.87;;;15.90;99.90;;;;;;2586077;54;20921;31
2023/08/06 12:50:53;;;;;;;1.15;0.70;;;15.90;99.90;;;;;;2585809;54;20895;31
2023/08/06 12:53:27;;;;;;;1.53;0.97;;;16.00;99.90;;;;;;2585783;54;20936;31
2023/08/06 12:56:06;;;;;;;1.75;1.00;;;15.90;99.90;;;;;;2585058;54;21049;31
2023/08/06 12:58:45;;;;;;;1.05;0.85;;;15.90;99.90;;;;;;2585951;54;20777;31
2023/08/06 13:01:22;;;;;;;1.10;0.80;;;15.90;99.90;;;;;;2603779;47;20522;31
2023/08/06 13:03:56;;;;;;;1.60;1.00;;;15.90;99.90;;;;;;2585822;54;20057;31
2023/08/06 13:06:49;;;;;;;1.93;1.10;;;15.90;99.90;;;;;;2585978;54;20867;31
2023/08/06 13:09:27;;;;;;;2.50;1.00;;;16.00;99.90;;;;;;2585832;54;20234;31
2023/08/06 13:12:06;;;;;;;1.10;0.85;;;16.00;99.90;;;;;;2585845;54;21666;31
2023/08/06 13:14:42;;;;;;;2.70;1.20;;;16.00;99.90;;;;;;2585766;54;20031;31
2023/08/06 13:17:17;;;;;;;1.00;0.85;;;16.00;99.90;;;;;;2585688;54;20853;31
2023/08/06 13:19:50;;;;;;;1.27;1.00;;;16.00;99.90;;;;;;2585469;54;20740;31
2023/08/06 13:22:24;;;;;;;1.47;1.13;;;16.10;99.90;;;;;;2683551;39;22373;31
2023/08/06 13:24:56;;;;;;;3.42;1.20;;;16.10;99.90;;;;;;2585827;54;20034;31
2023/08/06 13:27:30;;;;;;;2.10;1.00;;;16.10;99.90;;;;;;2585769;54;21004;31
2023/08/06 13:30:17;;;;;;;2.30;1.10;;;16.00;99.90;;;;;;2585755;54;20093;31
2023/08/06 13:32:51;;;;;;;1.67;0.90;;;16.10;99.90;;;;;;2604277;47;20057;31
2023/08/06 13:35:29;;;;;;;2.58;1.00;;;16.10;99.90;;;;;;2603715;47;20829;31
2023/08/06 13:38:06;;;;;;;2.38;0.93;;;16.10;99.90;;;;;;2682602;39;22224;31
2023/08/06 13:40:44;;;;;;;1.95;1.30;;;16.10;99.90;;;;;;2585697;54;20572;31
2023/08/06 13:43:19;;;;;;;1.15;0.80;;;16.10;99.90;;;;;;2604079;47;20029;31
2023/08/06 13:45:58;;;;;;;1.37;1.10;;;16.10;99.90;;;;;;2585919;54;20250;31
2023/08/06 13:48:33;;;;;;;1.40;0.90;;;16.10;99.90;;;;;;2586429;54;20592;31
2023/08/06 13:51:09;;;;;;;1.25;1.00;;;16.10;99.90;;;;;;2586180;54;20019;31
2023/08/06 13:53:43;;;;;;;1.33;0.98;;;16.10;99.90;;;;;;2595654;46;21248;31
2023/08/06 13:56:22;;;;;;;2.22;0.82;;;16.10;99.90;;;;;;2585515;54;20688;31
2023/08/06 13:58:57;;;;;;;1.50;0.95;;;16.00;99.90;;;;;;2586474;54;20023;31